sensor_id;sensor_type;location;lat;lon;timestamp;pressure;altitude;pressure_sealevel;temperature;humidity
3434;BME280;1730;41.932;25.548;2023-09-30T00:00:45;99564.00;;;17.70;100.00
3434;BME280;1730;41.932;25.548;2023-09-30T00:03:10;99574.91;;;17.70;100.00
3434;BME280;1730;41.932;25.548;2023-09-30T00:05:36;99533.06;;;17.42;100.00
3434;BME280;1730;41.932;25.548;2023-09-30T00:08:03;99574.06;;;17.70;100.00
3434;BME280;1730;41.932;25.548;2023-09-30T00:10:29;99559.22;;;17.72;100.00
3434;BME280;1730;41.932;25.548;2023-09-30T00:12:58;99540.34;;;17.77;100.00
3434;BME280;1730;41.932;25.548;2023-09-30T00:15:24;99542.41;;;17.90;100.00
3434;BME280;1730;41.932;25.548;2023-09-30T00:17:50;99525.38;;;17.67;100.00
3434;BME280;1730;41.932;25.548;2023-09-30T00:20:16;99528.97;;;17.95;100.00
3434;BME280;1730;41.932;25.548;2023-09-30T00:22:41;99514.56;;;18.01;100.00
3434;BME280;1730;41.932;25.548;2023-09-30T00:25:08;99489.91;;;18.16;100.00
3434;BME280;1730;41.932;25.548;2023-09-30T00:27:34;99468.53;;;18.19;100.00
3434;BME280;1730;41.932;25.548;2023-09-30T00:29:59;99473.72;;;18.14;100.00
3434;BME280;1730;41.932;25.548;2023-09-30T00:32:25;99470.81;;;18.16;100.00
3434;BME280;1730;41.932;25.548;2023-09-30T00:34:50;99460.16;;;18.27;100.00
3434;BME280;1730;41.932;25.548;2023-09-30T00:37:17;99310.97;;;17.44;100.00
3434;BME280;1730;41.932;25.548;2023-09-30T00:39:43;99439.09;;;18.49;100.00
3434;BME280;1730;41.932;25.548;2023-09-30T00:42:10;99423.72;;;18.48;100.00
3434;BME280;1730;41.932;25.548;2023-09-30T00:44:36;99385.38;;;18.22;100.00
3434;BME280;1730;41.932;25.548;2023-09-30T00:47:01;99416.59;;;18.47;100.00
3434;BME280;1730;41.932;25.548;2023-09-30T00:49:27;99424.13;;;18.38;100.00
3434;BME280;1730;41.932;25.548;2023-09-30T00:51:54;99419.66;;;18.31;100.00
3434;BME280;1730;41.932;25.548;2023-09-30T00:54:21;99421.16;;;18.40;100.00
3434;BME280;1730;41.932;25.548;2023-09-30T00:56:51;99398.66;;;18.31;100.00
3434;BME280;1730;41.932;25.548;2023-09-30T00:59:19;99412.78;;;18.41;100.00
3434;BME280;1730;41.932;25.548;2023-09-30T01:01:45;99414.06;;;18.45;100.00
3434;BME280;1730;41.932;25.548;2023-09-30T01:04:14;99416.16;;;18.43;100.00
3434;BME280;1730;41.932;25.548;2023-09-30T01:06:41;99428.94;;;18.36;100.00
3434;BME280;1730;41.932;25.548;2023-09-30T01:09:07;99422.19;;;18.32;100.00
3434;BME280;1730;41.932;25.548;2023-09-30T01:11:34;99415.97;;;18.45;100.00
3434;BME280;1730;41.932;25.548;2023-09-30T01:14:00;99412.63;;;18.50;100.00
3434;BME280;1730;41.932;25.548;2023-09-30T01:16:27;99420.13;;;18.41;100.00
3434;BME280;1730;41.932;25.548;2023-09-30T01:18:53;99418.19;;;18.35;100.00
3434;BME280;1730;41.932;25.548;2023-09-30T01:21:20;99373.50;;;18.01;100.00
3434;BME280;1730;41.932;25.548;2023-09-30T01:23:45;99413.22;;;18.38;100.00
3434;BME280;1730;41.932;25.548;2023-09-30T01:26:13;99406.91;;;18.38;100.00
3434;BME280;1730;41.932;25.548;2023-09-30T01:28:40;99391.91;;;18.21;100.00
3434;BME280;1730;41.932;25.548;2023-09-30T01:31:06;99406.66;;;18.33;100.00
3434;BME280;1730;41.932;25.548;2023-09-30T01:33:32;99333.78;;;17.92;100.00
3434;BME280;1730;41.932;25.548;2023-09-30T01:35:59;99364.62;;;18.27;100.00
3434;BME280;1730;41.932;25.548;2023-09-30T01:38:25;99372.25;;;18.38;100.00
3434;BME280;1730;41.932;25.548;2023-09-30T01:40:51;99354.50;;;18.21;100.00
3434;BME280;1730;41.932;25.548;2023-09-30T01:43:17;99401.25;;;18.46;100.00
3434;BME280;1730;41.932;25.548;2023-09-30T01:45:43;99411.16;;;18.47;100.00
3434;BME280;1730;41.932;25.548;2023-09-30T01:48:10;99399.91;;;18.63;100.00
3434;BME280;1730;41.932;25.548;2023-09-30T01:50:39;99358.13;;;18.35;100.00
3434;BME280;1730;41.932;25.548;2023-09-30T01:53:06;99398.63;;;18.66;100.00
3434;BME280;1730;41.932;25.548;2023-09-30T01:55:33;99389.59;;;18.65;100.00
3434;BME280;1730;41.932;25.548;2023-09-30T01:57:59;99399.91;;;18.70;100.00
3434;BME280;1730;41.932;25.548;2023-09-30T02:00:24;99404.75;;;18.68;100.00
3434;BME280;1730;41.932;25.548;2023-09-30T02:02:50;99357.34;;;18.47;100.00
3434;BME280;1730;41.932;25.548;2023-09-30T02:05:16;99396.78;;;18.79;100.00
3434;BME280;1730;41.932;25.548;2023-09-30T02:07:41;99393.88;;;18.81;100.00
3434;BME280;1730;41.932;25.548;2023-09-30T02:10:07;99390.47;;;18.79;100.00
3434;BME280;1730;41.932;25.548;2023-09-30T02:12:33;99387.12;;;18.77;100.00
3434;BME280;1730;41.932;25.548;2023-09-30T02:14:59;99391.13;;;18.81;100.00
3434;BME280;1730;41.932;25.548;2023-09-30T02:17:26;99379.97;;;18.82;100.00
3434;BME280;1730;41.932;25.548;2023-09-30T02:19:52;99381.66;;;18.83;100.00
3434;BME280;1730;41.932;25.548;2023-09-30T02:22:18;99381.66;;;18.83;100.00
3434;BME280;1730;41.932;25.548;2023-09-30T02:24:44;99377.44;;;18.74;100.00
3434;BME280;1730;41.932;25.548;2023-09-30T02:27:20;99381.00;;;18.75;100.00
3434;BME280;1730;41.932;25.548;2023-09-30T02:29:46;99352.22;;;18.79;100.00
3434;BME280;1730;41.932;25.548;2023-09-30T02:32:12;99370.53;;;18.91;100.00
3434;BME280;1730;41.932;25.548;2023-09-30T02:34:40;99367.38;;;18.81;100.00
3434;BME280;1730;41.932;25.548;2023-09-30T02:37:08;99376.00;;;18.91;100.00
3434;BME280;1730;41.932;25.548;2023-09-30T02:39:33;99367.19;;;18.96;100.00
3434;BME280;1730;41.932;25.548;2023-09-30T02:41:59;99360.69;;;18.90;100.00
3434;BME280;1730;41.932;25.548;2023-09-30T02:44:24;99375.41;;;18.89;100.00
3434;BME280;1730;41.932;25.548;2023-09-30T02:46:50;99390.53;;;18.85;100.00
3434;BME280;1730;41.932;25.548;2023-09-30T02:49:16;99419.13;;;18.89;100.00
3434;BME280;1730;41.932;25.548;2023-09-30T02:51:42;99355.63;;;18.87;100.00
3434;BME280;1730;41.932;25.548;2023-09-30T02:54:07;99361.72;;;18.89;100.00
3434;BME280;1730;41.932;25.548;2023-09-30T02:56:34;99351.22;;;18.93;100.00
3434;BME280;1730;41.932;25.548;2023-09-30T02:58:59;99351.00;;;18.88;100.00
3434;BME280;1730;41.932;25.548;2023-09-30T03:01:27;99352.03;;;18.80;100.00
3434;BME280;1730;41.932;25.548;2023-09-30T03:03:53;99352.47;;;18.77;100.00
3434;BME280;1730;41.932;25.548;2023-09-30T03:06:19;99351.88;;;18.95;100.00
3434;BME280;1730;41.932;25.548;2023-09-30T03:08:44;99346.19;;;18.90;100.00
3434;BME280;1730;41.932;25.548;2023-09-30T03:11:12;99343.84;;;18.80;100.00
3434;BME280;1730;41.932;25.548;2023-09-30T03:13:38;99344.47;;;18.96;100.00
3434;BME280;1730;41.932;25.548;2023-09-30T03:16:08;99326.19;;;18.76;100.00
3434;BME280;1730;41.932;25.548;2023-09-30T03:18:34;99348.66;;;18.78;100.00
3434;BME280;1730;41.932;25.548;2023-09-30T03:21:01;99367.34;;;18.68;100.00
3434;BME280;1730;41.932;25.548;2023-09-30T03:23:27;99359.16;;;18.68;100.00
3434;BME280;1730;41.932;25.548;2023-09-30T03:25:59;99371.13;;;18.67;100.00
3434;BME280;1730;41.932;25.548;2023-09-30T03:28:28;99360.81;;;18.69;100.00
3434;BME280;1730;41.932;25.548;2023-09-30T03:30:55;99357.03;;;18.70;100.00
3434;BME280;1730;41.932;25.548;2023-09-30T03:33:22;99365.16;;;18.51;100.00
3434;BME280;1730;41.932;25.548;2023-09-30T03:35:47;99362.88;;;18.54;100.00
3434;BME280;1730;41.932;25.548;2023-09-30T03:38:12;99365.41;;;18.56;100.00
3434;BME280;1730;41.932;25.548;2023-09-30T03:40:39;99284.25;;;17.95;100.00
3434;BME280;1730;41.932;25.548;2023-09-30T03:43:05;99310.56;;;18.10;100.00
3434;BME280;1730;41.932;25.548;2023-09-30T03:45:31;99370.38;;;18.52;100.00
3434;BME280;1730;41.932;25.548;2023-09-30T03:47:58;99350.59;;;18.37;100.00
3434;BME280;1730;41.932;25.548;2023-09-30T03:50:24;99374.84;;;18.53;100.00
3434;BME280;1730;41.932;25.548;2023-09-30T03:52:50;99370.56;;;18.44;100.00
3434;BME280;1730;41.932;25.548;2023-09-30T03:55:16;99312.38;;;17.96;100.00
3434;BME280;1730;41.932;25.548;2023-09-30T03:57:43;99363.41;;;18.36;100.00
3434;BME280;1730;41.932;25.548;2023-09-30T04:00:13;99334.09;;;18.11;100.00
3434;BME280;1730;41.932;25.548;2023-09-30T04:02:44;99356.84;;;18.24;100.00
3434;BME280;1730;41.932;25.548;2023-09-30T04:05:13;99379.34;;;18.33;100.00
3434;BME280;1730;41.932;25.548;2023-09-30T04:07:39;99378.28;;;18.27;100.00
3434;BME280;1730;41.932;25.548;2023-09-30T04:10:08;99381.25;;;18.32;100.00
3434;BME280;1730;41.932;25.548;2023-09-30T04:12:33;99380.38;;;18.25;100.00
3434;BME280;1730;41.932;25.548;2023-09-30T04:14:59;99377.66;;;18.25;100.00
3434;BME280;1730;41.932;25.548;2023-09-30T04:17:25;99382.31;;;18.38;100.00
3434;BME280;1730;41.932;25.548;2023-09-30T04:19:52;99379.12;;;18.34;100.00
3434;BME280;1730;41.932;25.548;2023-09-30T04:22:18;99364.78;;;18.19;100.00
3434;BME280;1730;41.932;25.548;2023-09-30T04:24:47;99382.31;;;18.38;100.00
3434;BME280;1730;41.932;25.548;2023-09-30T04:27:15;99376.22;;;18.36;100.00
3434;BME280;1730;41.932;25.548;2023-09-30T04:29:42;99316.81;;;18.03;100.00
3434;BME280;1730;41.932;25.548;2023-09-30T04:32:08;99380.44;;;18.45;100.00
3434;BME280;1730;41.932;25.548;2023-09-30T04:34:36;99381.31;;;18.45;100.00
3434;BME280;1730;41.932;25.548;2023-09-30T04:37:04;99380.12;;;18.55;100.00
3434;BME280;1730;41.932;25.548;2023-09-30T04:39:58;99374.44;;;18.56;100.00
3434;BME280;1730;41.932;25.548;2023-09-30T04:42:24;99380.97;;;18.62;100.00
3434;BME280;1730;41.932;25.548;2023-09-30T04:44:52;99375.97;;;18.78;100.00
3434;BME280;1730;41.932;25.548;2023-09-30T04:47:17;99372.62;;;18.83;100.00
3434;BME280;1730;41.932;25.548;2023-09-30T04:49:45;99363.63;;;18.89;100.00
3434;BME280;1730;41.932;25.548;2023-09-30T04:52:11;99371.00;;;19.02;100.00
3434;BME280;1730;41.932;25.548;2023-09-30T04:54:38;99364.50;;;19.22;100.00
3434;BME280;1730;41.932;25.548;2023-09-30T04:57:03;99360.13;;;19.34;100.00
3434;BME280;1730;41.932;25.548;2023-09-30T04:59:28;99340.75;;;19.36;100.00
3434;BME280;1730;41.932;25.548;2023-09-30T05:01:55;99361.00;;;19.61;100.00
3434;BME280;1730;41.932;25.548;2023-09-30T05:04:22;99358.03;;;19.69;100.00
3434;BME280;1730;41.932;25.548;2023-09-30T05:06:52;99358.84;;;19.76;100.00
3434;BME280;1730;41.932;25.548;2023-09-30T05:09:20;99327.69;;;19.91;100.00
3434;BME280;1730;41.932;25.548;2023-09-30T05:11:46;99349.28;;;20.18;100.00
3434;BME280;1730;41.932;25.548;2023-09-30T05:14:12;99346.75;;;20.23;100.00
3434;BME280;1730;41.932;25.548;2023-09-30T05:16:38;99348.81;;;20.41;100.00
3434;BME280;1730;41.932;25.548;2023-09-30T05:19:04;99352.28;;;20.68;100.00
3434;BME280;1730;41.932;25.548;2023-09-30T05:21:29;99344.81;;;20.88;100.00
3434;BME280;1730;41.932;25.548;2023-09-30T05:23:55;99351.16;;;20.82;100.00
3434;BME280;1730;41.932;25.548;2023-09-30T05:26:22;99355.06;;;20.99;100.00
3434;BME280;1730;41.932;25.548;2023-09-30T05:28:48;99348.97;;;20.97;100.00
3434;BME280;1730;41.932;25.548;2023-09-30T05:31:15;99346.97;;;21.11;100.00
3434;BME280;1730;41.932;25.548;2023-09-30T05:33:40;99353.19;;;21.31;100.00
3434;BME280;1730;41.932;25.548;2023-09-30T05:36:08;99326.91;;;21.17;100.00
3434;BME280;1730;41.932;25.548;2023-09-30T05:38:34;99353.03;;;21.51;100.00
3434;BME280;1730;41.932;25.548;2023-09-30T05:41:00;99357.72;;;21.69;100.00
3434;BME280;1730;41.932;25.548;2023-09-30T05:43:26;98996.56;;;19.40;100.00
3434;BME280;1730;41.932;25.548;2023-09-30T05:45:52;99357.66;;;22.00;100.00
3434;BME280;1730;41.932;25.548;2023-09-30T05:48:21;99359.81;;;21.98;100.00
3434;BME280;1730;41.932;25.548;2023-09-30T05:50:47;99363.78;;;22.02;100.00
3434;BME280;1730;41.932;25.548;2023-09-30T05:53:19;99366.59;;;22.14;100.00
3434;BME280;1730;41.932;25.548;2023-09-30T05:55:47;99386.53;;;22.27;100.00
3434;BME280;1730;41.932;25.548;2023-09-30T05:58:16;99360.91;;;22.15;100.00
3434;BME280;1730;41.932;25.548;2023-09-30T06:06:13;99362.72;;;22.39;100.00
3434;BME280;1730;41.932;25.548;2023-09-30T06:08:42;99346.53;;;22.31;100.00
3434;BME280;1730;41.932;25.548;2023-09-30T06:11:22;98879.06;;;19.33;100.00
3434;BME280;1730;41.932;25.548;2023-09-30T06:13:52;98787.63;;;18.98;100.00
3434;BME280;1730;41.932;25.548;2023-09-30T06:16:19;98946.28;;;20.03;100.00
3434;BME280;1730;41.932;25.548;2023-09-30T06:18:45;99335.38;;;22.44;100.00
3434;BME280;1730;41.932;25.548;2023-09-30T06:21:12;98782.69;;;19.13;100.00
3434;BME280;1730;41.932;25.548;2023-09-30T06:23:40;98792.38;;;19.09;100.00
3434;BME280;1730;41.932;25.548;2023-09-30T06:26:06;98865.69;;;19.50;100.00
3434;BME280;1730;41.932;25.548;2023-09-30T06:28:32;98817.94;;;19.21;100.00
3434;BME280;1730;41.932;25.548;2023-09-30T06:31:05;98851.44;;;19.66;100.00
3434;BME280;1730;41.932;25.548;2023-09-30T06:33:35;99368.03;;;23.19;100.00
3434;BME280;1730;41.932;25.548;2023-09-30T06:36:18;98899.28;;;20.06;100.00
3434;BME280;1730;41.932;25.548;2023-09-30T06:38:46;99366.78;;;23.03;100.00
3434;BME280;1730;41.932;25.548;2023-09-30T06:41:18;98877.22;;;19.83;100.00
3434;BME280;1730;41.932;25.548;2023-09-30T06:43:44;99368.44;;;23.34;100.00
3434;BME280;1730;41.932;25.548;2023-09-30T06:46:12;98860.03;;;19.94;100.00
3434;BME280;1730;41.932;25.548;2023-09-30T06:48:40;99366.41;;;23.41;100.00
3434;BME280;1730;41.932;25.548;2023-09-30T06:51:06;98937.16;;;20.89;100.00
3434;BME280;1730;41.932;25.548;2023-09-30T06:53:32;98870.81;;;20.14;100.00
3434;BME280;1730;41.932;25.548;2023-09-30T06:55:57;99347.31;;;23.46;100.00
3434;BME280;1730;41.932;25.548;2023-09-30T06:58:24;99397.41;;;23.78;100.00
3434;BME280;1730;41.932;25.548;2023-09-30T07:00:51;99366.97;;;23.96;100.00
3434;BME280;1730;41.932;25.548;2023-09-30T07:03:19;99380.25;;;23.88;98.17
3434;BME280;1730;41.932;25.548;2023-09-30T07:05:46;99392.00;;;23.83;96.28
3434;BME280;1730;41.932;25.548;2023-09-30T07:08:19;98760.28;;;20.08;95.49
3434;BME280;1730;41.932;25.548;2023-09-30T07:10:47;98966.16;;;21.63;93.13
3434;BME280;1730;41.932;25.548;2023-09-30T07:13:16;98871.03;;;20.67;90.53
3434;BME280;1730;41.932;25.548;2023-09-30T07:15:44;99356.81;;;24.08;88.27
3434;BME280;1730;41.932;25.548;2023-09-30T07:18:10;98893.75;;;21.04;86.38
3434;BME280;1730;41.932;25.548;2023-09-30T07:20:37;98956.06;;;21.45;85.85
3434;BME280;1730;41.932;25.548;2023-09-30T07:23:03;99382.22;;;24.22;88.21
3434;BME280;1730;41.932;25.548;2023-09-30T07:25:30;98878.66;;;21.13;88.40
3434;BME280;1730;41.932;25.548;2023-09-30T07:28:03;98848.09;;;21.39;83.51
3434;BME280;1730;41.932;25.548;2023-09-30T07:30:32;99281.06;;;24.11;83.43
3434;BME280;1730;41.932;25.548;2023-09-30T07:32:58;98874.41;;;20.99;82.26
3434;BME280;1730;41.932;25.548;2023-09-30T07:35:24;98845.31;;;20.98;80.65
3434;BME280;1730;41.932;25.548;2023-09-30T07:37:50;99141.25;;;22.62;80.70
3434;BME280;1730;41.932;25.548;2023-09-30T07:40:19;99309.69;;;24.10;81.01
3434;BME280;1730;41.932;25.548;2023-09-30T07:42:46;99213.81;;;23.72;82.31
3434;BME280;1730;41.932;25.548;2023-09-30T07:45:12;99367.78;;;24.55;79.69
3434;BME280;1730;41.932;25.548;2023-09-30T07:47:47;99392.47;;;24.61;77.41
3434;BME280;1730;41.932;25.548;2023-09-30T07:50:13;99380.78;;;24.83;77.86
3434;BME280;1730;41.932;25.548;2023-09-30T07:52:46;99393.72;;;24.94;78.16
3434;BME280;1730;41.932;25.548;2023-09-30T07:55:12;99389.47;;;25.03;74.55
3434;BME280;1730;41.932;25.548;2023-09-30T07:57:40;99024.25;;;22.54;73.34
3434;BME280;1730;41.932;25.548;2023-09-30T08:00:13;98954.94;;;22.64;72.96
3434;BME280;1730;41.932;25.548;2023-09-30T08:02:42;99458.28;;;25.61;71.64
3434;BME280;1730;41.932;25.548;2023-09-30T08:05:09;99384.31;;;25.06;71.15
3434;BME280;1730;41.932;25.548;2023-09-30T08:07:36;99379.44;;;25.42;71.66
3434;BME280;1730;41.932;25.548;2023-09-30T08:10:08;99377.38;;;25.49;70.10
3434;BME280;1730;41.932;25.548;2023-09-30T08:12:39;98859.84;;;21.81;70.13
3434;BME280;1730;41.932;25.548;2023-09-30T08:15:08;99379.16;;;25.72;68.42
3434;BME280;1730;41.932;25.548;2023-09-30T08:20:52;99380.56;;;26.08;67.75
3434;BME280;1730;41.932;25.548;2023-09-30T08:23:18;99380.22;;;26.21;68.45
3434;BME280;1730;41.932;25.548;2023-09-30T08:25:44;99365.56;;;26.37;68.09
3434;BME280;1730;41.932;25.548;2023-09-30T08:28:12;98938.09;;;23.40;66.44
3434;BME280;1730;41.932;25.548;2023-09-30T08:30:38;99371.09;;;26.37;66.08
3434;BME280;1730;41.932;25.548;2023-09-30T08:33:05;99369.09;;;26.54;65.04
3434;BME280;1730;41.932;25.548;2023-09-30T08:35:38;98984.03;;;23.96;63.47
3434;BME280;1730;41.932;25.548;2023-09-30T08:38:04;99368.19;;;26.70;62.69
3434;BME280;1730;41.932;25.548;2023-09-30T08:40:30;99064.03;;;24.96;62.78
3434;BME280;1730;41.932;25.548;2023-09-30T08:42:56;99335.69;;;26.39;60.65
3434;BME280;1730;41.932;25.548;2023-09-30T08:45:24;99119.94;;;25.08;60.90
3434;BME280;1730;41.932;25.548;2023-09-30T08:47:54;99378.38;;;26.86;59.89
3434;BME280;1730;41.932;25.548;2023-09-30T08:50:20;99290.63;;;26.00;60.16
3434;BME280;1730;41.932;25.548;2023-09-30T08:52:49;99018.41;;;24.39;60.06
3434;BME280;1730;41.932;25.548;2023-09-30T08:55:31;99257.62;;;25.55;60.55
3434;BME280;1730;41.932;25.548;2023-09-30T08:58:01;98895.66;;;23.08;60.51
3434;BME280;1730;41.932;25.548;2023-09-30T09:00:40;99365.72;;;26.14;60.41
3434;BME280;1730;41.932;25.548;2023-09-30T09:05:56;99364.34;;;26.71;61.01
3434;BME280;1730;41.932;25.548;2023-09-30T09:11:02;99366.50;;;27.13;57.30
3434;BME280;1730;41.932;25.548;2023-09-30T09:13:48;99387.44;;;27.30;57.09
3434;BME280;1730;41.932;25.548;2023-09-30T09:16:16;99363.63;;;27.29;54.75
3434;BME280;1730;41.932;25.548;2023-09-30T09:18:46;99358.72;;;27.37;55.02
3434;BME280;1730;41.932;25.548;2023-09-30T09:23:49;99363.63;;;27.88;53.86
3434;BME280;1730;41.932;25.548;2023-09-30T09:26:28;99353.87;;;27.81;53.53
3434;BME280;1730;41.932;25.548;2023-09-30T09:29:02;99266.41;;;27.31;53.67
3434;BME280;1730;41.932;25.548;2023-09-30T09:37:28;99343.66;;;27.86;51.14
3434;BME280;1730;41.932;25.548;2023-09-30T09:39:58;99433.91;;;28.41;51.33
3434;BME280;1730;41.932;25.548;2023-09-30T09:42:29;98775.03;;;24.65;51.27
3434;BME280;1730;41.932;25.548;2023-09-30T09:45:08;99353.06;;;28.22;51.23
3434;BME280;1730;41.932;25.548;2023-09-30T09:47:36;99359.75;;;28.31;50.61
3434;BME280;1730;41.932;25.548;2023-09-30T09:50:03;99355.09;;;27.95;50.34
3434;BME280;1730;41.932;25.548;2023-09-30T09:52:34;98820.44;;;24.36;50.72
3434;BME280;1730;41.932;25.548;2023-09-30T09:55:02;99355.53;;;28.18;50.47
3434;BME280;1730;41.932;25.548;2023-09-30T09:57:31;99350.50;;;28.10;50.14
3434;BME280;1730;41.932;25.548;2023-09-30T09:59:57;99317.25;;;27.78;50.23
3434;BME280;1730;41.932;25.548;2023-09-30T10:02:46;99306.50;;;27.50;50.25
3434;BME280;1730;41.932;25.548;2023-09-30T10:05:14;98747.72;;;23.98;50.19
3434;BME280;1730;41.932;25.548;2023-09-30T10:08:07;98803.72;;;24.04;50.27
3434;BME280;1730;41.932;25.548;2023-09-30T10:21:12;99352.06;;;28.01;50.00
3434;BME280;1730;41.932;25.548;2023-09-30T10:23:41;99328.50;;;27.99;50.23
3434;BME280;1730;41.932;25.548;2023-09-30T10:26:29;99330.31;;;27.83;49.74
3434;BME280;1730;41.932;25.548;2023-09-30T10:29:17;99399.56;;;27.78;51.02
3434;BME280;1730;41.932;25.548;2023-09-30T10:31:54;99203.66;;;26.29;51.37
3434;BME280;1730;41.932;25.548;2023-09-30T10:35:02;99338.13;;;27.27;51.90
3434;BME280;1730;41.932;25.548;2023-09-30T10:37:43;99381.53;;;27.75;52.11
3434;BME280;1730;41.932;25.548;2023-09-30T10:43:30;99370.66;;;27.69;51.26
3434;BME280;1730;41.932;25.548;2023-09-30T10:54:13;99316.25;;;28.37;50.61
3434;BME280;1730;41.932;25.548;2023-09-30T10:56:40;99317.75;;;28.64;50.37
3434;BME280;1730;41.932;25.548;2023-09-30T10:59:05;99309.72;;;28.68;51.32
3434;BME280;1730;41.932;25.548;2023-09-30T11:01:34;99309.50;;;28.80;51.20
3434;BME280;1730;41.932;25.548;2023-09-30T11:04:02;99310.06;;;28.77;50.50
3434;BME280;1730;41.932;25.548;2023-09-30T11:06:30;99304.47;;;28.72;50.85
3434;BME280;1730;41.932;25.548;2023-09-30T11:08:57;99306.69;;;28.75;50.55
3434;BME280;1730;41.932;25.548;2023-09-30T11:14:03;99311.84;;;29.33;49.63
3434;BME280;1730;41.932;25.548;2023-09-30T11:16:43;99310.88;;;28.72;49.67
3434;BME280;1730;41.932;25.548;2023-09-30T11:19:10;99278.31;;;28.62;49.67
3434;BME280;1730;41.932;25.548;2023-09-30T11:21:36;99297.69;;;28.42;50.00
3434;BME280;1730;41.932;25.548;2023-09-30T11:24:01;99289.31;;;28.32;50.03
3434;BME280;1730;41.932;25.548;2023-09-30T11:26:31;99288.97;;;28.86;49.53
3434;BME280;1730;41.932;25.548;2023-09-30T11:29:25;99285.16;;;29.17;49.19
3434;BME280;1730;41.932;25.548;2023-09-30T11:31:53;99291.00;;;29.26;49.30
3434;BME280;1730;41.932;25.548;2023-09-30T11:34:35;99285.44;;;29.36;49.55
3434;BME280;1730;41.932;25.548;2023-09-30T11:37:12;99290.69;;;29.07;48.67
3434;BME280;1730;41.932;25.548;2023-09-30T11:39:38;99284.28;;;29.06;48.70
3434;BME280;1730;41.932;25.548;2023-09-30T11:42:14;99279.56;;;28.87;48.09
3434;BME280;1730;41.932;25.548;2023-09-30T11:44:46;99277.47;;;28.57;47.72
3434;BME280;1730;41.932;25.548;2023-09-30T11:47:28;99231.06;;;28.32;48.04
3434;BME280;1730;41.932;25.548;2023-09-30T11:50:16;99281.97;;;28.68;47.63
3434;BME280;1730;41.932;25.548;2023-09-30T11:58:08;99277.50;;;28.67;46.28
3434;BME280;1730;41.932;25.548;2023-09-30T12:00:40;99269.19;;;28.67;45.93
3434;BME280;1730;41.932;25.548;2023-09-30T12:03:06;99278.44;;;28.98;46.06
3434;BME280;1730;41.932;25.548;2023-09-30T12:08:02;99266.53;;;28.25;46.00
3434;BME280;1730;41.932;25.548;2023-09-30T12:10:28;99261.09;;;28.50;46.37
3434;BME280;1730;41.932;25.548;2023-09-30T12:12:56;98736.78;;;24.95;46.17
3434;BME280;1730;41.932;25.548;2023-09-30T12:15:22;98855.97;;;25.78;46.67
3434;BME280;1730;41.932;25.548;2023-09-30T12:17:47;99165.41;;;27.96;46.07
3434;BME280;1730;41.932;25.548;2023-09-30T12:20:13;99249.34;;;28.28;46.12
3434;BME280;1730;41.932;25.548;2023-09-30T12:25:10;99258.44;;;28.18;46.51
3434;BME280;1730;41.932;25.548;2023-09-30T12:27:36;99247.78;;;27.53;46.89
3434;BME280;1730;41.932;25.548;2023-09-30T12:30:01;99230.91;;;27.55;47.25
3434;BME280;1730;41.932;25.548;2023-09-30T12:32:35;98664.59;;;23.63;46.70
3434;BME280;1730;41.932;25.548;2023-09-30T12:35:01;98984.12;;;26.03;47.86
3434;BME280;1730;41.932;25.548;2023-09-30T12:37:28;98738.50;;;24.53;47.93
3434;BME280;1730;41.932;25.548;2023-09-30T12:39:58;98855.94;;;24.92;47.74
3434;BME280;1730;41.932;25.548;2023-09-30T12:42:24;98728.81;;;24.07;47.91
3434;BME280;1730;41.932;25.548;2023-09-30T12:44:51;99251.41;;;28.01;47.52
3434;BME280;1730;41.932;25.548;2023-09-30T12:47:17;99225.09;;;28.03;47.03
3434;BME280;1730;41.932;25.548;2023-09-30T12:49:58;98708.09;;;25.33;47.02
3434;BME280;1730;41.932;25.548;2023-09-30T12:52:24;99070.19;;;27.55;46.64
3434;BME280;1730;41.932;25.548;2023-09-30T12:54:55;98703.41;;;24.70;46.88
3434;BME280;1730;41.932;25.548;2023-09-30T12:57:20;98855.81;;;25.63;47.20
3434;BME280;1730;41.932;25.548;2023-09-30T12:59:48;99194.94;;;28.17;46.64
3434;BME280;1730;41.932;25.548;2023-09-30T13:02:15;99194.25;;;28.00;46.86
3434;BME280;1730;41.932;25.548;2023-09-30T13:04:44;99207.06;;;28.06;46.94
3434;BME280;1730;41.932;25.548;2023-09-30T13:07:10;98743.72;;;25.03;46.66
3434;BME280;1730;41.932;25.548;2023-09-30T13:09:40;99204.94;;;28.23;47.66
3434;BME280;1730;41.932;25.548;2023-09-30T13:12:10;99198.00;;;28.15;47.53
3434;BME280;1730;41.932;25.548;2023-09-30T13:14:38;98667.91;;;24.79;47.01
3434;BME280;1730;41.932;25.548;2023-09-30T13:17:05;98672.97;;;25.24;46.30
3434;BME280;1730;41.932;25.548;2023-09-30T13:19:31;98674.19;;;25.01;46.18
3434;BME280;1730;41.932;25.548;2023-09-30T13:21:58;98800.75;;;25.83;46.18
3434;BME280;1730;41.932;25.548;2023-09-30T13:24:24;99205.19;;;28.21;45.92
3434;BME280;1730;41.932;25.548;2023-09-30T13:26:51;98702.78;;;24.90;46.27
3434;BME280;1730;41.932;25.548;2023-09-30T13:29:18;98657.13;;;24.77;46.25
3434;BME280;1730;41.932;25.548;2023-09-30T13:31:44;99029.56;;;27.23;46.20
3434;BME280;1730;41.932;25.548;2023-09-30T13:34:25;98631.34;;;24.61;46.08
3434;BME280;1730;41.932;25.548;2023-09-30T13:36:52;99180.50;;;28.15;46.32
3434;BME280;1730;41.932;25.548;2023-09-30T13:41:45;99170.81;;;27.65;46.35
3434;BME280;1730;41.932;25.548;2023-09-30T13:44:13;99191.03;;;27.61;46.42
3434;BME280;1730;41.932;25.548;2023-09-30T13:46:39;99162.91;;;27.42;46.82
3434;BME280;1730;41.932;25.548;2023-09-30T13:49:05;99061.31;;;26.69;46.93
3434;BME280;1730;41.932;25.548;2023-09-30T13:51:33;98650.31;;;24.09;46.82
3434;BME280;1730;41.932;25.548;2023-09-30T13:54:07;99178.37;;;27.33;46.94
3434;BME280;1730;41.932;25.548;2023-09-30T13:59:13;99178.50;;;27.16;46.86
3434;BME280;1730;41.932;25.548;2023-09-30T14:04:21;99174.12;;;27.25;47.33
3434;BME280;1730;41.932;25.548;2023-09-30T14:06:47;98545.97;;;23.43;46.90
3434;BME280;1730;41.932;25.548;2023-09-30T14:09:13;99218.34;;;27.10;47.44
3434;BME280;1730;41.932;25.548;2023-09-30T14:11:41;99168.22;;;27.07;47.79
3434;BME280;1730;41.932;25.548;2023-09-30T14:14:08;98782.69;;;24.85;47.51
3434;BME280;1730;41.932;25.548;2023-09-30T14:17:05;99197.78;;;27.01;47.76